LKNA

Náměšť Air Base Airport

Náměšť, Czech Republic
METAR LKNA 191300Z 35006KT 9999 BKN036 17/08 Q1022 NOSIG RMK BLU BLU
Observed Flight Rules
Oct-19 @ 13:00 UTC (23 minutes ago) Visual Flight Rules
Wind Visibility Clouds
350° at 6 knots 10,000+ meters
  • Broken at 3,600' AGL
Temperatures Readings
Current 17°C / 63°F
Dewpoint 8°C / 46°F
Humidity 56%
Altimeter 30.18" Hg
Pressure 1022 hPa
Elevation 472
METAR LKNA 191300Z 35006KT 9999 BKN036 17/08 Q1022 NOSIG RMK BLU BLU
Observed Flight Rules
Oct-19 @ 13:00 UTC
(23 minutes ago)
VFR
Wind Visibility
350° at 6 knots 10,000+ meters
Clouds
  • Broken at 3,600' AGL
Temperature Dewpoint
17°C / 63°F 8°C / 46°F
Humidity Altimeter Pressure
56% 30.18" Hg 1022 hPa